Sealy, Texas
Current Conditions -  °F | °C
As of 2:15 PM on Thursday 29 Jan 2015 (Local Time) from KELA Reporting Station
Scattered Clouds Scattered Clouds  
Wind Chill: 72°   Ceiling: Unl
Heat Index: 72°   Visibility: 10mi
Dew Point: 60°   Wind: 6mph
Humidity: 66%   Direction: 170°S
Pressure: 30.2"   Gusts: NA
Location:  29.78°N, 96.16°W
Report Text: KELA 292015Z AUTO 17005KT 10SM SCT031 22/16 A3020 RMK AO2 T02230156
Loading
Personal Weather Stations






























Interactive Weather Map New forecast layout! Learn more

10-Day Weather Forecast

Advertisements
Track Severe Weather on mobile